Time;durP1;ratioP1;P1;durP2;ratioP2;P2;SDS_P1;SDS_P2;PMS_P1;PMS_P2;Temp;Humidity;BMP_temperature;BMP_pressure;BME280_temperature;BME280_humidity;BME280_pressure;Samples;Min_cycle;Max_cycle;Signal;HPM_P1;HPM_P2
2022/11/02 00:00:39;;;;;;;9.40;2.80;;;;;;;;;;5062419;28;20425;-81
2022/11/02 00:03:05;;;;;;;10.27;2.88;;;;;;;;;;5064189;28;20413;-82
2022/11/02 00:05:32;;;;;;;6.65;2.40;;;;;;;;;;5063952;28;20848;-82
2022/11/02 00:07:59;;;;;;;7.47;2.30;;;;;;;;;;5065797;28;20910;-82
2022/11/02 00:10:26;;;;;;;9.07;2.70;;;;;;;;;;5065522;28;20799;-82
2022/11/02 00:12:52;;;;;;;13.27;3.35;;;;;;;;;;5064319;28;20423;-82
2022/11/02 00:15:18;;;;;;;13.05;3.25;;;;;;;;;;5066560;28;20930;-80
2022/11/02 00:17:47;;;;;;;9.90;2.60;;;;;;;;;;5065045;28;20433;-79
2022/11/02 00:20:14;;;;;;;9.40;2.63;;;;;;;;;;5067436;28;20420;-80
2022/11/02 00:22:41;;;;;;;10.27;3.00;;;;;;;;;;5063950;28;20436;-80
2022/11/02 00:25:11;;;;;;;8.98;2.60;;;;;;;;;;5063710;28;20426;-80
2022/11/02 00:27:38;;;;;;;8.73;2.88;;;;;;;;;;5061625;28;20463;-80
2022/11/02 00:30:05;;;;;;;8.82;2.70;;;;;;;;;;5062399;28;20429;-80
2022/11/02 00:32:31;;;;;;;12.35;2.83;;;;;;;;;;5060567;28;20434;-79
2022/11/02 00:34:58;;;;;;;13.02;3.13;;;;;;;;;;5062541;28;20455;-80
2022/11/02 00:37:24;;;;;;;13.05;3.08;;;;;;;;;;5066052;28;20429;-80
2022/11/02 00:39:50;;;;;;;14.75;3.38;;;;;;;;;;5064612;28;20448;-82
2022/11/02 00:42:18;;;;;;;9.20;2.60;;;;;;;;;;5064608;28;20429;-80
2022/11/02 00:44:45;;;;;;;9.37;2.97;;;;;;;;;;5060557;28;21008;-81
2022/11/02 00:47:11;;;;;;;9.63;2.75;;;;;;;;;;5062087;28;20433;-80
2022/11/02 00:49:38;;;;;;;12.23;2.95;;;;;;;;;;5066192;28;20426;-82
2022/11/02 00:52:04;;;;;;;7.83;3.00;;;;;;;;;;5062117;28;20431;-80
2022/11/02 00:54:31;;;;;;;7.03;2.60;;;;;;;;;;5062402;28;20432;-81
2022/11/02 00:56:57;;;;;;;8.37;2.63;;;;;;;;;;5071473;28;20415;-80
2022/11/02 00:59:25;;;;;;;9.88;3.00;;;;;;;;;;5062571;28;20413;-81
2022/11/02 01:01:52;;;;;;;9.93;2.78;;;;;;;;;;5062195;28;20434;-80
2022/11/02 01:04:18;;;;;;;9.00;2.50;;;;;;;;;;5066882;28;20424;-81
2022/11/02 01:06:45;;;;;;;11.93;3.00;;;;;;;;;;5066829;28;20435;-81
2022/11/02 01:09:11;;;;;;;10.95;3.00;;;;;;;;;;5066723;28;20415;-80
2022/11/02 01:11:38;;;;;;;9.63;2.65;;;;;;;;;;5066855;28;20432;-81
2022/11/02 01:14:36;;;;;;;12.77;3.63;;;;;;;;;;5060251;28;20895;-81
2022/11/02 01:17:04;;;;;;;10.03;2.50;;;;;;;;;;5067445;28;20498;-81
2022/11/02 01:19:30;;;;;;;7.93;2.40;;;;;;;;;;5063072;28;20427;-80
2022/11/02 01:21:57;;;;;;;8.50;2.80;;;;;;;;;;5062623;28;20432;-79
2022/11/02 01:24:23;;;;;;;8.27;2.70;;;;;;;;;;5060419;28;20448;-80
2022/11/02 01:26:51;;;;;;;8.88;3.00;;;;;;;;;;5064800;28;20435;-79
2022/11/02 01:29:17;;;;;;;14.35;3.30;;;;;;;;;;5058954;28;20409;-80
2022/11/02 01:31:44;;;;;;;11.60;2.80;;;;;;;;;;5061009;28;20499;-81
2022/11/02 01:34:12;;;;;;;15.07;3.60;;;;;;;;;;5061607;28;20408;-80
2022/11/02 01:36:38;;;;;;;11.70;2.70;;;;;;;;;;5062070;28;20434;-79
2022/11/02 01:39:04;;;;;;;9.90;2.70;;;;;;;;;;5062918;28;20416;-81
2022/11/02 01:41:31;;;;;;;9.77;3.00;;;;;;;;;;5063108;28;20436;-79
2022/11/02 01:43:59;;;;;;;7.13;2.50;;;;;;;;;;5061525;28;20768;-81
2022/11/02 01:46:29;;;;;;;8.17;3.00;;;;;;;;;;5064261;28;20425;-80
2022/11/02 01:48:59;;;;;;;10.87;2.90;;;;;;;;;;5063995;28;20445;-81
2022/11/02 01:51:29;;;;;;;9.02;2.90;;;;;;;;;;5060010;28;20433;-82
2022/11/02 01:53:57;;;;;;;10.70;3.20;;;;;;;;;;5060340;28;20433;-81
2022/11/02 01:56:25;;;;;;;10.05;2.85;;;;;;;;;;5060652;28;20805;-80
2022/11/02 01:58:54;;;;;;;9.52;2.40;;;;;;;;;;5064951;28;20429;-81
2022/11/02 02:01:21;;;;;;;17.10;3.22;;;;;;;;;;5061156;28;20451;-81
2022/11/02 02:03:48;;;;;;;10.27;3.03;;;;;;;;;;5064655;28;20432;-82
2022/11/02 02:06:15;;;;;;;9.32;2.67;;;;;;;;;;5060032;28;20437;-81
2022/11/02 02:08:45;;;;;;;12.02;2.95;;;;;;;;;;5059313;28;20428;-80
2022/11/02 02:11:25;;;;;;;11.05;3.20;;;;;;;;;;5066327;28;20927;-81
2022/11/02 02:13:52;;;;;;;7.53;2.80;;;;;;;;;;5059618;28;20436;-81
2022/11/02 02:16:20;;;;;;;9.23;2.70;;;;;;;;;;5063150;28;20435;-81
2022/11/02 02:18:50;;;;;;;9.95;2.83;;;;;;;;;;5061141;28;20427;-81
2022/11/02 02:21:25;;;;;;;11.25;3.08;;;;;;;;;;5059510;28;20427;-81
2022/11/02 02:24:06;;;;;;;11.50;3.40;;;;;;;;;;5057134;28;20425;-80
2022/11/02 02:26:57;;;;;;;10.93;2.47;;;;;;;;;;5060075;28;20419;-82
2022/11/02 02:29:27;;;;;;;17.55;4.00;;;;;;;;;;5062921;28;20404;-83
2022/11/02 02:31:56;;;;;;;14.95;3.42;;;;;;;;;;5062539;28;20433;-82
2022/11/02 02:34:24;;;;;;;9.18;3.05;;;;;;;;;;5060637;28;20415;-81
2022/11/02 02:36:52;;;;;;;11.10;2.63;;;;;;;;;;5056466;28;20435;-80
2022/11/02 02:39:23;;;;;;;9.37;3.07;;;;;;;;;;5059764;28;20505;-81
2022/11/02 02:41:54;;;;;;;11.35;2.50;;;;;;;;;;5061866;28;20429;-79
2022/11/02 02:44:23;;;;;;;8.75;2.83;;;;;;;;;;5057081;28;20444;-82
2022/11/02 02:47:00;;;;;;;12.35;2.90;;;;;;;;;;5064351;28;20421;-82
2022/11/02 02:49:29;;;;;;;9.07;2.77;;;;;;;;;;5062718;28;20427;-81
2022/11/02 02:51:56;;;;;;;7.35;2.72;;;;;;;;;;5061792;28;20436;-81
2022/11/02 02:54:26;;;;;;;12.60;3.20;;;;;;;;;;5062031;28;20436;-80
2022/11/02 02:56:54;;;;;;;15.80;3.50;;;;;;;;;;5064682;28;20433;-81
2022/11/02 02:59:22;;;;;;;11.88;2.70;;;;;;;;;;5063194;28;20426;-80
2022/11/02 03:01:51;;;;;;;11.27;2.92;;;;;;;;;;5063759;28;20425;-82
2022/11/02 03:04:19;;;;;;;8.10;3.25;;;;;;;;;;5060914;28;20414;-81
2022/11/02 03:06:48;;;;;;;9.68;2.95;;;;;;;;;;5065067;28;20411;-81
2022/11/02 03:09:19;;;;;;;12.07;3.20;;;;;;;;;;5065024;28;20415;-81
2022/11/02 03:11:50;;;;;;;11.13;2.77;;;;;;;;;;5062644;28;20437;-81
2022/11/02 03:14:25;;;;;;;7.28;2.60;;;;;;;;;;5061199;28;20425;-80
2022/11/02 03:17:01;;;;;;;13.73;3.25;;;;;;;;;;5064246;28;20428;-81
2022/11/02 03:19:34;;;;;;;11.43;2.90;;;;;;;;;;5061376;28;20452;-81
2022/11/02 03:22:04;;;;;;;9.83;2.80;;;;;;;;;;5068039;28;20454;-81
2022/11/02 03:24:35;;;;;;;10.63;3.42;;;;;;;;;;5062476;28;20426;-80
2022/11/02 03:27:07;;;;;;;10.73;2.95;;;;;;;;;;5073101;28;20432;-80
2022/11/02 03:29:39;;;;;;;18.13;3.40;;;;;;;;;;5058463;28;20427;-80
2022/11/02 03:32:09;;;;;;;9.43;2.90;;;;;;;;;;5062877;28;20923;-80
2022/11/02 03:34:38;;;;;;;14.43;3.40;;;;;;;;;;5063496;28;20421;-81
2022/11/02 03:37:06;;;;;;;12.15;2.85;;;;;;;;;;5062137;28;20428;-79
2022/11/02 03:39:36;;;;;;;9.00;2.60;;;;;;;;;;5065402;28;20437;-79
2022/11/02 03:42:04;;;;;;;11.68;2.78;;;;;;;;;;5063930;28;20428;-81
2022/11/02 03:44:31;;;;;;;10.10;2.67;;;;;;;;;;5059799;28;20429;-79
2022/11/02 03:46:59;;;;;;;10.70;2.75;;;;;;;;;;5064080;28;20424;-79
2022/11/02 03:49:26;;;;;;;7.43;2.25;;;;;;;;;;5063666;28;20428;-79
2022/11/02 03:51:55;;;;;;;9.15;2.67;;;;;;;;;;5063690;28;20433;-80
2022/11/02 03:54:26;;;;;;;12.33;2.50;;;;;;;;;;5066255;28;20797;-79
2022/11/02 03:56:55;;;;;;;6.73;2.50;;;;;;;;;;5067495;28;20433;-80
2022/11/02 03:59:22;;;;;;;5.80;2.25;;;;;;;;;;5062598;28;20516;-80
2022/11/02 04:01:49;;;;;;;9.52;2.83;;;;;;;;;;5061572;28;20789;-80
2022/11/02 04:04:16;;;;;;;10.98;2.40;;;;;;;;;;5065290;28;20420;-81
2022/11/02 04:06:44;;;;;;;7.07;2.20;;;;;;;;;;5066897;28;20914;-79
2022/11/02 04:09:12;;;;;;;7.20;2.65;;;;;;;;;;5065820;28;20446;-80
2022/11/02 04:14:37;;;;;;;7.35;2.50;;;;;;;;;;5065310;28;20417;-80
2022/11/02 04:19:49;;;;;;;5.63;2.60;;;;;;;;;;5063492;28;20420;-81
2022/11/02 04:25:17;;;;;;;6.85;2.55;;;;;;;;;;5071939;28;20428;-81
2022/11/02 04:27:44;;;;;;;7.80;2.60;;;;;;;;;;5064068;28;20998;-81
2022/11/02 04:30:12;;;;;;;5.30;2.45;;;;;;;;;;5061861;28;20429;-83
2022/11/02 04:35:23;;;;;;;8.07;2.80;;;;;;;;;;5060767;28;20476;-80
2022/11/02 04:40:35;;;;;;;7.53;3.20;;;;;;;;;;5057996;28;20930;-80
2022/11/02 04:43:01;;;;;;;6.60;2.90;;;;;;;;;;5058944;28;20427;-81
2022/11/02 04:45:28;;;;;;;5.35;2.40;;;;;;;;;;5062369;28;20429;-81
2022/11/02 04:47:59;;;;;;;7.55;2.45;;;;;;;;;;5063159;28;20435;-80
2022/11/02 04:50:25;;;;;;;6.75;2.30;;;;;;;;;;5065374;28;20766;-79
2022/11/02 04:52:55;;;;;;;7.32;2.38;;;;;;;;;;5060580;28;20431;-82
2022/11/02 04:55:21;;;;;;;5.50;2.30;;;;;;;;;;5061157;28;20413;-79
2022/11/02 04:57:49;;;;;;;5.00;2.20;;;;;;;;;;5063432;28;20445;-83
2022/11/02 05:00:17;;;;;;;3.70;1.80;;;;;;;;;;5061056;28;20423;-81
2022/11/02 05:02:45;;;;;;;3.83;1.60;;;;;;;;;;5059674;28;20424;-81
2022/11/02 05:05:12;;;;;;;4.47;1.92;;;;;;;;;;5063650;28;20426;-80
2022/11/02 05:07:38;;;;;;;4.00;1.70;;;;;;;;;;5078702;28;20432;-79
2022/11/02 05:10:05;;;;;;;4.03;1.70;;;;;;;;;;5062233;28;20424;-80
2022/11/02 05:12:33;;;;;;;3.60;1.65;;;;;;;;;;5064514;28;20417;-81
2022/11/02 05:15:03;;;;;;;4.38;1.45;;;;;;;;;;5067065;28;20815;-80
2022/11/02 05:17:30;;;;;;;4.15;1.50;;;;;;;;;;5065596;28;20438;-81
2022/11/02 05:19:57;;;;;;;3.75;1.90;;;;;;;;;;5065775;28;20427;-80
2022/11/02 05:22:23;;;;;;;2.67;1.42;;;;;;;;;;5066757;28;20941;-81
2022/11/02 05:24:50;;;;;;;4.80;1.30;;;;;;;;;;5065235;28;20409;-82
2022/11/02 05:27:16;;;;;;;3.67;1.50;;;;;;;;;;5066744;28;20776;-80
2022/11/02 05:29:42;;;;;;;4.05;1.38;;;;;;;;;;5063020;28;20422;-81
2022/11/02 05:32:10;;;;;;;4.78;1.40;;;;;;;;;;5061810;28;20433;-81
2022/11/02 05:34:37;;;;;;;4.63;1.80;;;;;;;;;;5060002;28;20421;-80
2022/11/02 05:37:04;;;;;;;3.38;1.67;;;;;;;;;;5065209;28;20457;-80
2022/11/02 05:39:30;;;;;;;3.83;1.60;;;;;;;;;;5061296;28;20417;-80
2022/11/02 05:41:57;;;;;;;4.00;1.60;;;;;;;;;;5061716;28;20423;-81
2022/11/02 05:44:23;;;;;;;4.43;1.77;;;;;;;;;;5061955;28;20915;-80
2022/11/02 05:46:51;;;;;;;5.15;1.75;;;;;;;;;;5060106;28;20606;-81
2022/11/02 05:49:19;;;;;;;3.50;1.80;;;;;;;;;;5061032;28;20414;-81
2022/11/02 05:51:45;;;;;;;4.90;1.92;;;;;;;;;;5062731;28;20421;-81
2022/11/02 05:54:12;;;;;;;2.83;1.70;;;;;;;;;;5062959;28;20915;-80
2022/11/02 05:56:38;;;;;;;8.05;1.85;;;;;;;;;;5066702;28;20452;-81
2022/11/02 05:59:04;;;;;;;3.70;2.00;;;;;;;;;;5064682;28;20402;-80
2022/11/02 06:01:31;;;;;;;4.90;1.95;;;;;;;;;;5059088;28;20442;-81
2022/11/02 06:03:57;;;;;;;4.65;2.00;;;;;;;;;;5061938;28;20431;-81
2022/11/02 06:06:25;;;;;;;6.47;2.00;;;;;;;;;;5067300;28;20806;-80
2022/11/02 06:08:52;;;;;;;3.88;2.10;;;;;;;;;;5064377;28;20909;-80
2022/11/02 06:11:19;;;;;;;6.18;2.13;;;;;;;;;;5063661;28;20471;-80
2022/11/02 06:13:49;;;;;;;7.88;2.25;;;;;;;;;;5061152;28;20428;-81
2022/11/02 06:16:15;;;;;;;4.13;1.90;;;;;;;;;;5063812;28;20411;-80
2022/11/02 06:18:44;;;;;;;4.60;2.33;;;;;;;;;;5061359;28;20432;-83
2022/11/02 06:21:10;;;;;;;4.60;1.90;;;;;;;;;;5061095;28;20512;-81
2022/11/02 06:23:38;;;;;;;6.30;2.45;;;;;;;;;;5068274;28;20427;-79
2022/11/02 06:26:05;;;;;;;5.77;2.40;;;;;;;;;;5064567;28;20424;-80
2022/11/02 06:28:32;;;;;;;6.80;2.47;;;;;;;;;;5063056;28;20433;-80
2022/11/02 06:30:58;;;;;;;6.47;2.80;;;;;;;;;;5065147;28;20415;-81
2022/11/02 06:33:25;;;;;;;8.60;2.60;;;;;;;;;;5062942;28;20491;-81
2022/11/02 06:35:52;;;;;;;9.48;2.80;;;;;;;;;;5064767;28;20424;-81
2022/11/02 06:38:18;;;;;;;7.73;2.90;;;;;;;;;;5062623;28;20428;-81
2022/11/02 06:40:54;;;;;;;8.15;2.83;;;;;;;;;;5057953;28;20452;-80
2022/11/02 06:43:20;;;;;;;7.80;2.55;;;;;;;;;;5065941;28;20436;-80
2022/11/02 06:45:46;;;;;;;5.63;2.35;;;;;;;;;;5060540;28;20428;-80
2022/11/02 06:48:13;;;;;;;5.60;2.30;;;;;;;;;;5061282;28;20421;-80
2022/11/02 06:50:39;;;;;;;6.47;2.90;;;;;;;;;;5061186;28;20417;-81
2022/11/02 06:53:06;;;;;;;10.10;2.60;;;;;;;;;;5066289;28;20431;-81
2022/11/02 06:55:32;;;;;;;8.35;2.53;;;;;;;;;;5062775;28;21248;-80
2022/11/02 06:58:00;;;;;;;12.43;3.13;;;;;;;;;;5061500;28;20416;-81
2022/11/02 07:00:26;;;;;;;8.00;2.50;;;;;;;;;;5060050;28;20421;-80
2022/11/02 07:02:59;;;;;;;9.57;2.60;;;;;;;;;;5066760;28;20411;-81
2022/11/02 07:05:27;;;;;;;12.57;3.38;;;;;;;;;;5065466;28;20430;-81
2022/11/02 07:07:53;;;;;;;16.15;3.15;;;;;;;;;;5066250;28;20417;-80
2022/11/02 07:10:19;;;;;;;13.33;2.87;;;;;;;;;;5067036;28;20422;-80
2022/11/02 07:12:46;;;;;;;10.60;2.88;;;;;;;;;;5066658;28;20807;-79
2022/11/02 07:15:14;;;;;;;8.43;2.83;;;;;;;;;;5069311;28;20413;-81
2022/11/02 07:17:40;;;;;;;11.97;3.30;;;;;;;;;;5068138;28;20420;-80
2022/11/02 07:20:09;;;;;;;10.02;2.60;;;;;;;;;;5065281;28;20424;-81
2022/11/02 07:22:35;;;;;;;9.27;2.63;;;;;;;;;;5068417;28;20793;-81
2022/11/02 07:25:02;;;;;;;11.00;2.83;;;;;;;;;;5068242;28;20409;-82
2022/11/02 07:27:28;;;;;;;10.65;2.70;;;;;;;;;;5068710;28;20420;-81
2022/11/02 07:29:54;;;;;;;9.00;2.33;;;;;;;;;;5065432;28;20488;-83
2022/11/02 07:32:22;;;;;;;7.55;2.78;;;;;;;;;;5067363;28;20420;-81
2022/11/02 07:34:48;;;;;;;8.57;2.72;;;;;;;;;;5065749;28;20428;-83
2022/11/02 07:37:15;;;;;;;14.13;3.35;;;;;;;;;;5074081;28;20904;-80
2022/11/02 07:39:41;;;;;;;11.70;3.00;;;;;;;;;;5063745;28;20424;-80
2022/11/02 07:42:08;;;;;;;10.07;2.90;;;;;;;;;;5066169;28;20925;-80
2022/11/02 07:44:34;;;;;;;9.27;2.70;;;;;;;;;;5064134;28;20524;-80
2022/11/02 07:47:01;;;;;;;13.60;3.88;;;;;;;;;;5065982;28;20412;-80
2022/11/02 07:49:29;;;;;;;11.40;3.60;;;;;;;;;;5068484;28;20432;-80
2022/11/02 07:51:55;;;;;;;15.25;4.00;;;;;;;;;;5067703;28;20424;-81
2022/11/02 07:54:22;;;;;;;15.93;3.38;;;;;;;;;;5067693;28;20424;-80
2022/11/02 07:56:50;;;;;;;13.27;3.20;;;;;;;;;;5067143;28;20426;-81
2022/11/02 07:59:16;;;;;;;7.10;3.40;;;;;;;;;;5065647;28;20410;-80
2022/11/02 08:01:43;;;;;;;10.52;3.28;;;;;;;;;;5061990;28;20502;-81
2022/11/02 08:04:09;;;;;;;11.18;3.60;;;;;;;;;;5067964;28;20908;-80
2022/11/02 08:06:37;;;;;;;10.00;3.40;;;;;;;;;;5068233;28;20427;-79
2022/11/02 08:09:05;;;;;;;15.82;4.40;;;;;;;;;;5069739;28;20415;-79
2022/11/02 08:11:32;;;;;;;11.50;3.28;;;;;;;;;;5069603;28;20512;-79
2022/11/02 08:13:58;;;;;;;9.30;3.42;;;;;;;;;;5067452;28;21010;-80
2022/11/02 08:16:25;;;;;;;9.95;3.08;;;;;;;;;;5064511;28;20486;-81
2022/11/02 08:18:51;;;;;;;12.23;3.80;;;;;;;;;;5068372;28;20790;-82
2022/11/02 08:21:17;;;;;;;10.60;3.50;;;;;;;;;;5067857;28;20926;-80
2022/11/02 08:23:45;;;;;;;14.50;3.55;;;;;;;;;;5067600;28;20419;-80
2022/11/02 08:26:11;;;;;;;16.73;3.90;;;;;;;;;;5066999;28;20423;-81
2022/11/02 08:28:40;;;;;;;12.38;3.50;;;;;;;;;;5065292;28;20411;-79
2022/11/02 08:31:07;;;;;;;9.90;3.50;;;;;;;;;;5064611;28;20536;-82
2022/11/02 08:33:33;;;;;;;11.23;4.00;;;;;;;;;;5067751;28;20407;-82
2022/11/02 08:36:01;;;;;;;11.40;3.33;;;;;;;;;;5066054;28;20953;-79
2022/11/02 08:38:28;;;;;;;10.52;3.60;;;;;;;;;;5060952;28;20419;-81
2022/11/02 08:40:57;;;;;;;8.90;2.70;;;;;;;;;;5061680;28;20932;-80
2022/11/02 08:43:23;;;;;;;8.70;3.35;;;;;;;;;;5063328;28;20413;-80
2022/11/02 08:45:50;;;;;;;11.93;3.38;;;;;;;;;;5065908;28;20900;-80
2022/11/02 08:48:16;;;;;;;10.80;3.07;;;;;;;;;;5063748;28;20430;-83
2022/11/02 08:50:43;;;;;;;15.10;4.20;;;;;;;;;;5062019;28;20636;-81
2022/11/02 08:53:09;;;;;;;13.02;3.70;;;;;;;;;;5066127;28;20420;-80
2022/11/02 08:55:36;;;;;;;13.50;4.20;;;;;;;;;;5065582;28;20415;-80
2022/11/02 08:58:04;;;;;;;11.93;3.47;;;;;;;;;;5062541;28;20804;-81
2022/11/02 09:00:32;;;;;;;11.00;3.15;;;;;;;;;;5063144;28;20425;-82
2022/11/02 09:03:00;;;;;;;10.23;3.70;;;;;;;;;;5062875;28;20424;-82
2022/11/02 09:05:26;;;;;;;11.38;3.58;;;;;;;;;;5062386;28;20511;-82
2022/11/02 09:07:56;;;;;;;12.35;4.00;;;;;;;;;;5064814;28;20433;-82
2022/11/02 09:10:23;;;;;;;10.10;3.10;;;;;;;;;;5062309;28;20418;-83
2022/11/02 09:12:50;;;;;;;9.32;2.63;;;;;;;;;;5066665;28;20409;-80
2022/11/02 09:15:17;;;;;;;16.00;3.90;;;;;;;;;;5060705;28;20407;-81
2022/11/02 09:17:49;;;;;;;12.07;3.30;;;;;;;;;;5062391;28;20443;-80
2022/11/02 09:20:16;;;;;;;10.57;3.53;;;;;;;;;;5064831;28;20769;-79
2022/11/02 09:22:42;;;;;;;11.63;3.47;;;;;;;;;;5065450;28;20424;-80
2022/11/02 09:25:10;;;;;;;9.38;2.78;;;;;;;;;;5065523;28;20419;-80
2022/11/02 09:27:36;;;;;;;10.27;2.70;;;;;;;;;;5069651;28;20421;-79
2022/11/02 09:30:03;;;;;;;5.77;2.83;;;;;;;;;;5063368;28;20442;-80
2022/11/02 09:32:32;;;;;;;8.98;2.58;;;;;;;;;;5064362;28;20525;-79
2022/11/02 09:34:59;;;;;;;7.60;2.60;;;;;;;;;;5063412;28;20455;-81
2022/11/02 09:37:25;;;;;;;6.33;2.20;;;;;;;;;;5068142;28;20425;-79
2022/11/02 09:39:52;;;;;;;7.22;2.67;;;;;;;;;;5068785;28;20932;-80
2022/11/02 09:42:20;;;;;;;5.97;1.90;;;;;;;;;;5068756;28;21158;-79
2022/11/02 09:44:49;;;;;;;6.67;1.97;;;;;;;;;;5061512;28;20498;-79
2022/11/02 09:47:15;;;;;;;4.63;2.00;;;;;;;;;;5060654;28;20421;-80
2022/11/02 09:49:45;;;;;;;8.65;2.30;;;;;;;;;;5062271;28;20429;-80
2022/11/02 09:52:15;;;;;;;6.00;1.98;;;;;;;;;;5065336;28;20423;-80
2022/11/02 09:54:43;;;;;;;7.30;1.90;;;;;;;;;;5066610;28;20416;-81
2022/11/02 09:57:12;;;;;;;5.53;2.00;;;;;;;;;;5064873;28;20432;-80
2022/11/02 09:59:40;;;;;;;7.88;1.77;;;;;;;;;;5063924;28;20411;-79
2022/11/02 10:02:15;;;;;;;4.85;1.80;;;;;;;;;;5063897;28;20407;-80
2022/11/02 10:05:00;;;;;;;7.53;2.08;;;;;;;;;;5060989;28;20543;-80
2022/11/02 10:07:32;;;;;;;6.93;2.08;;;;;;;;;;5062043;28;20415;-79
2022/11/02 10:10:01;;;;;;;9.45;2.20;;;;;;;;;;5067452;28;20923;-79
2022/11/02 10:12:31;;;;;;;7.93;2.35;;;;;;;;;;5064820;28;20423;-80
2022/11/02 10:15:02;;;;;;;8.40;2.63;;;;;;;;;;5065864;28;20412;-80
2022/11/02 10:17:30;;;;;;;8.98;2.42;;;;;;;;;;5057217;28;20429;-80
2022/11/02 10:19:59;;;;;;;5.78;1.88;;;;;;;;;;5064248;28;20417;-81
2022/11/02 10:22:27;;;;;;;9.15;2.40;;;;;;;;;;5061175;28;20458;-82
2022/11/02 10:24:57;;;;;;;7.93;2.60;;;;;;;;;;5061930;28;20791;-80
2022/11/02 10:27:26;;;;;;;7.57;2.45;;;;;;;;;;5065892;28;20427;-81
2022/11/02 10:29:54;;;;;;;10.20;2.60;;;;;;;;;;5067377;28;20410;-81
2022/11/02 10:32:20;;;;;;;8.23;2.33;;;;;;;;;;5064732;28;20413;-81
2022/11/02 10:34:47;;;;;;;7.63;2.20;;;;;;;;;;5066438;28;20417;-82
2022/11/02 10:37:24;;;;;;;10.50;2.40;;;;;;;;;;5064056;28;20425;-82
2022/11/02 10:39:56;;;;;;;7.10;2.10;;;;;;;;;;5065609;28;20413;-82
2022/11/02 10:42:31;;;;;;;5.70;2.00;;;;;;;;;;5066006;28;20423;-81
2022/11/02 10:45:12;;;;;;;10.82;3.00;;;;;;;;;;5062097;28;20423;-80
2022/11/02 10:47:41;;;;;;;5.05;2.30;;;;;;;;;;5063523;28;20453;-80
2022/11/02 10:50:29;;;;;;;6.80;2.00;;;;;;;;;;5064351;28;20431;-80
2022/11/02 10:53:00;;;;;;;9.15;2.00;;;;;;;;;;5064733;28;20419;-80
2022/11/02 10:55:29;;;;;;;6.90;1.73;;;;;;;;;;5057834;28;20859;-82
2022/11/02 10:57:56;;;;;;;7.65;1.98;;;;;;;;;;5062014;28;20424;-80
2022/11/02 11:00:28;;;;;;;7.75;2.00;;;;;;;;;;5058844;28;20421;-80
2022/11/02 11:03:02;;;;;;;5.43;1.87;;;;;;;;;;5063548;28;20417;-80
2022/11/02 11:05:28;;;;;;;5.82;1.90;;;;;;;;;;5058878;28;20432;-79
2022/11/02 11:07:56;;;;;;;7.32;2.10;;;;;;;;;;5064837;28;20450;-80
2022/11/02 11:10:24;;;;;;;9.60;2.37;;;;;;;;;;5061970;28;21016;-81
2022/11/02 11:12:51;;;;;;;6.70;2.20;;;;;;;;;;5065566;28;20434;-81
2022/11/02 11:15:21;;;;;;;3.58;1.75;;;;;;;;;;5066770;28;20914;-80
2022/11/02 11:17:49;;;;;;;8.45;2.38;;;;;;;;;;5062497;28;20894;-80
2022/11/02 11:20:27;;;;;;;8.73;2.00;;;;;;;;;;5064376;28;20410;-80
2022/11/02 11:23:07;;;;;;;7.57;2.35;;;;;;;;;;5065449;28;20432;-80
2022/11/02 11:25:35;;;;;;;7.32;2.40;;;;;;;;;;5065760;28;20426;-80
2022/11/02 11:28:01;;;;;;;5.80;2.22;;;;;;;;;;5066371;28;20412;-81
2022/11/02 11:30:29;;;;;;;7.27;1.87;;;;;;;;;;5064938;28;20411;-79
2022/11/02 11:32:56;;;;;;;8.52;2.15;;;;;;;;;;5062518;28;20415;-83
2022/11/02 11:35:24;;;;;;;6.93;2.10;;;;;;;;;;5063282;28;20413;-81
2022/11/02 11:37:54;;;;;;;5.70;2.00;;;;;;;;;;5059145;28;20491;-81
2022/11/02 11:40:21;;;;;;;5.82;1.80;;;;;;;;;;5066216;28;20424;-82
2022/11/02 11:42:50;;;;;;;8.40;2.25;;;;;;;;;;5064982;28;20453;-82
2022/11/02 11:45:20;;;;;;;6.43;2.00;;;;;;;;;;5061224;28;20424;-81
2022/11/02 11:47:50;;;;;;;6.05;2.10;;;;;;;;;;5067850;28;20405;-82
2022/11/02 11:50:17;;;;;;;5.90;2.00;;;;;;;;;;5057831;28;20428;-81
2022/11/02 11:52:44;;;;;;;6.47;2.40;;;;;;;;;;5064256;28;20413;-79
2022/11/02 11:55:21;;;;;;;5.85;2.60;;;;;;;;;;5065685;28;20412;-80
2022/11/02 11:58:04;;;;;;;6.90;1.90;;;;;;;;;;5067726;28;20413;-80
2022/11/02 12:00:33;;;;;;;4.50;2.40;;;;;;;;;;5064776;28;20427;-80
2022/11/02 12:03:04;;;;;;;5.72;2.00;;;;;;;;;;5069643;28;20448;-80
2022/11/02 12:05:32;;;;;;;6.82;2.00;;;;;;;;;;5065740;28;20957;-80
2022/11/02 12:08:18;;;;;;;7.38;1.70;;;;;;;;;;5067578;28;20801;-80
2022/11/02 12:10:52;;;;;;;6.70;1.80;;;;;;;;;;5062077;28;20483;-80
2022/11/02 12:13:27;;;;;;;5.57;1.75;;;;;;;;;;5064696;28;20423;-80
2022/11/02 12:16:07;;;;;;;8.63;2.13;;;;;;;;;;5072523;28;20472;-82
2022/11/02 12:18:47;;;;;;;7.30;2.40;;;;;;;;;;5069503;28;20552;-79
2022/11/02 12:21:21;;;;;;;6.95;1.80;;;;;;;;;;5065137;28;20443;-78
2022/11/02 12:23:59;;;;;;;7.93;1.90;;;;;;;;;;5063898;28;20904;-79
2022/11/02 12:26:30;;;;;;;6.03;1.35;;;;;;;;;;5064873;28;20432;-79
2022/11/02 12:29:02;;;;;;;8.40;2.20;;;;;;;;;;5063353;28;20416;-80
2022/11/02 12:31:37;;;;;;;7.90;1.80;;;;;;;;;;5066722;28;20429;-80
2022/11/02 12:34:17;;;;;;;7.53;1.83;;;;;;;;;;5068242;28;20911;-82
2022/11/02 12:36:50;;;;;;;6.05;1.90;;;;;;;;;;5064384;28;20419;-81
2022/11/02 12:39:21;;;;;;;6.45;1.80;;;;;;;;;;5060925;28;20423;-82
2022/11/02 12:41:55;;;;;;;10.15;2.60;;;;;;;;;;5066834;28;20417;-81
2022/11/02 12:44:39;;;;;;;5.88;1.80;;;;;;;;;;5068555;28;20467;-82
2022/11/02 12:47:14;;;;;;;7.65;1.77;;;;;;;;;;5051487;28;20417;-79
2022/11/02 12:49:46;;;;;;;8.75;1.90;;;;;;;;;;5067604;28;20426;-81
2022/11/02 12:52:18;;;;;;;9.05;2.33;;;;;;;;;;5065672;28;20464;-79
2022/11/02 12:54:46;;;;;;;9.67;2.20;;;;;;;;;;5065045;28;20434;-79
2022/11/02 12:57:14;;;;;;;7.15;1.63;;;;;;;;;;5064907;28;20428;-80
2022/11/02 12:59:42;;;;;;;8.65;2.00;;;;;;;;;;5062241;28;20429;-79
2022/11/02 13:02:13;;;;;;;7.70;2.00;;;;;;;;;;5063686;28;20437;-80
2022/11/02 13:04:44;;;;;;;9.77;3.38;;;;;;;;;;5060527;28;20435;-81
2022/11/02 13:07:12;;;;;;;6.07;2.58;;;;;;;;;;5064897;28;20917;-79
2022/11/02 13:09:40;;;;;;;8.98;2.35;;;;;;;;;;5063505;28;20441;-79
2022/11/02 13:12:08;;;;;;;9.68;2.10;;;;;;;;;;5065138;28;20418;-80
2022/11/02 13:14:38;;;;;;;8.27;2.50;;;;;;;;;;5063217;28;20409;-80
2022/11/02 13:17:08;;;;;;;6.75;1.90;;;;;;;;;;5064115;28;20449;-80
2022/11/02 13:19:38;;;;;;;9.45;1.83;;;;;;;;;;5064622;28;20549;-80
2022/11/02 13:22:05;;;;;;;8.88;2.28;;;;;;;;;;5063084;28;20444;-80
2022/11/02 13:24:33;;;;;;;8.75;2.50;;;;;;;;;;5066077;28;20425;-80
2022/11/02 13:27:02;;;;;;;9.32;2.40;;;;;;;;;;5066556;28;20423;-80
2022/11/02 13:29:32;;;;;;;9.48;2.45;;;;;;;;;;5060328;28;20413;-81
2022/11/02 13:32:03;;;;;;;9.13;2.90;;;;;;;;;;5066427;28;20502;-79
2022/11/02 13:34:32;;;;;;;7.65;1.70;;;;;;;;;;5064357;28;20772;-81
2022/11/02 13:37:03;;;;;;;10.95;2.00;;;;;;;;;;5064323;28;20427;-79
2022/11/02 13:39:31;;;;;;;9.10;2.50;;;;;;;;;;5061356;28;20413;-80
2022/11/02 13:42:13;;;;;;;7.97;2.00;;;;;;;;;;5066926;28;20407;-81
2022/11/02 13:44:57;;;;;;;6.18;1.92;;;;;;;;;;5063444;28;20430;-80
2022/11/02 13:47:35;;;;;;;16.48;7.85;;;;;;;;;;5062486;28;20420;-80
2022/11/02 13:50:03;;;;;;;9.95;2.67;;;;;;;;;;5065665;28;20424;-79
2022/11/02 13:52:36;;;;;;;4.18;1.52;;;;;;;;;;5061649;28;20427;-80
2022/11/02 13:55:04;;;;;;;7.83;2.17;;;;;;;;;;5061884;28;20413;-80
2022/11/02 13:57:33;;;;;;;8.40;1.90;;;;;;;;;;5063889;28;20466;-81
2022/11/02 14:00:01;;;;;;;8.98;2.60;;;;;;;;;;5060191;28;20417;-79
2022/11/02 14:02:31;;;;;;;11.80;2.85;;;;;;;;;;5065237;28;20410;-81
2022/11/02 14:04:58;;;;;;;6.20;1.90;;;;;;;;;;5064859;28;20421;-81
2022/11/02 14:07:27;;;;;;;7.05;2.30;;;;;;;;;;5060594;28;20512;-82
2022/11/02 14:09:58;;;;;;;7.78;2.05;;;;;;;;;;5067145;28;20413;-81
2022/11/02 14:12:28;;;;;;;6.03;2.10;;;;;;;;;;5063517;28;20411;-81
2022/11/02 14:15:13;;;;;;;10.20;2.80;;;;;;;;;;5061530;28;20430;-81
2022/11/02 14:17:55;;;;;;;8.50;2.43;;;;;;;;;;5061470;28;20428;-79
2022/11/02 14:20:34;;;;;;;11.30;2.17;;;;;;;;;;5063934;28;20428;-80
2022/11/02 14:23:19;;;;;;;6.78;1.92;;;;;;;;;;5064781;28;20443;-79
2022/11/02 14:25:48;;;;;;;6.57;1.77;;;;;;;;;;5064956;28;20429;-80
2022/11/02 14:28:31;;;;;;;7.55;1.90;;;;;;;;;;5060340;28;20436;-80
2022/11/02 14:31:00;;;;;;;8.60;2.15;;;;;;;;;;5057739;28;20421;-80
2022/11/02 14:33:35;;;;;;;10.70;2.10;;;;;;;;;;5064736;28;20447;-80
2022/11/02 14:36:05;;;;;;;8.43;1.65;;;;;;;;;;5057109;28;20451;-81
2022/11/02 14:38:46;;;;;;;5.50;1.95;;;;;;;;;;5070282;28;20528;-81
2022/11/02 14:41:19;;;;;;;4.40;2.03;;;;;;;;;;5052196;28;20421;-80
2022/11/02 14:43:55;;;;;;;7.45;2.35;;;;;;;;;;5059981;28;20422;-80
2022/11/02 14:46:31;;;;;;;8.15;2.30;;;;;;;;;;5083480;28;20445;-80
2022/11/02 14:48:59;;;;;;;8.43;2.90;;;;;;;;;;5079713;28;20438;-80
2022/11/02 14:51:27;;;;;;;9.93;2.83;;;;;;;;;;5064622;28;20423;-81
2022/11/02 14:53:57;;;;;;;6.32;2.80;;;;;;;;;;5063460;28;20433;-80
2022/11/02 14:56:45;;;;;;;7.60;2.80;;;;;;;;;;5058183;28;20907;-79
2022/11/02 14:59:15;;;;;;;9.88;2.70;;;;;;;;;;5061758;28;20417;-80
2022/11/02 15:01:49;;;;;;;6.60;2.20;;;;;;;;;;5060727;28;20415;-80
2022/11/02 15:04:17;;;;;;;5.78;1.90;;;;;;;;;;5062053;28;20799;-79